Time;durP1;ratioP1;P1;durP2;ratioP2;P2;SDS_P1;SDS_P2;PMS_P1;PMS_P2;Temp;Humidity;BMP_temperature;BMP_pressure;BME280_temperature;BME280_humidity;BME280_pressure;Samples;Min_cycle;Max_cycle;Signal;HPM_P1;HPM_P2
2021/06/10 00:00:28;;;;;;;5.53;4.13;;;;;;;;;;5066916;28;20350;-73
2021/06/10 00:02:53;;;;;;;5.82;5.20;;;;;;;;;;5058768;28;20528;-73
2021/06/10 00:05:20;;;;;;;4.97;4.55;;;;;;;;;;5056532;28;20177;-72
2021/06/10 00:07:45;;;;;;;5.32;4.53;;;;;;;;;;5063355;28;20259;-73
2021/06/10 00:10:12;;;;;;;5.20;4.70;;;;;;;;;;5058646;28;20260;-73
2021/06/10 00:12:38;;;;;;;5.38;4.88;;;;;;;;;;5057372;28;20193;-72
2021/06/10 00:15:04;;;;;;;5.53;4.68;;;;;;;;;;5057494;28;20188;-71
2021/06/10 00:17:30;;;;;;;6.90;4.63;;;;;;;;;;5061368;28;20188;-71
2021/06/10 00:19:55;;;;;;;5.60;5.07;;;;;;;;;;5062922;28;20185;-71
2021/06/10 00:22:20;;;;;;;5.43;4.88;;;;;;;;;;5057634;28;20212;-71
2021/06/10 00:24:46;;;;;;;5.18;4.72;;;;;;;;;;5055642;28;20318;-74
2021/06/10 00:27:11;;;;;;;5.85;5.35;;;;;;;;;;5056580;28;20273;-71
2021/06/10 00:29:36;;;;;;;5.50;5.00;;;;;;;;;;5058496;28;20170;-71
2021/06/10 00:32:01;;;;;;;5.68;5.00;;;;;;;;;;5064258;28;20173;-73
2021/06/10 00:34:26;;;;;;;5.35;4.85;;;;;;;;;;5064611;28;20285;-73
2021/06/10 00:36:52;;;;;;;5.43;4.93;;;;;;;;;;5059492;28;20557;-72
2021/06/10 00:39:17;;;;;;;5.45;4.90;;;;;;;;;;5059052;28;20260;-72
2021/06/10 00:41:42;;;;;;;6.03;5.43;;;;;;;;;;5061707;28;20177;-72
2021/06/10 00:44:08;;;;;;;5.60;5.07;;;;;;;;;;5062330;28;20212;-72
2021/06/10 00:49:36;;;;;;;6.53;5.93;;;;;;;;;;5056034;28;20546;-73
2021/06/10 00:52:02;;;;;;;9.27;6.20;;;;;;;;;;5058824;28;20177;-73
2021/06/10 00:54:27;;;;;;;6.28;5.78;;;;;;;;;;5063073;28;20237;-72
2021/06/10 00:56:52;;;;;;;7.15;6.53;;;;;;;;;;5060656;28;20509;-71
2021/06/10 00:59:18;;;;;;;8.67;6.80;;;;;;;;;;5066747;28;20177;-71
2021/06/10 01:01:43;;;;;;;7.78;7.07;;;;;;;;;;5063172;28;20429;-71
2021/06/10 01:04:08;;;;;;;8.68;7.78;;;;;;;;;;5067778;28;20596;-71
2021/06/10 01:06:51;;;;;;;9.45;8.65;;;;;;;;;;5071144;28;20180;-71
2021/06/10 01:09:35;;;;;;;9.02;8.13;;;;;;;;;;5067802;28;20263;-72
2021/06/10 01:12:03;;;;;;;10.15;8.52;;;;;;;;;;5067191;28;20649;-71
2021/06/10 01:14:30;;;;;;;12.00;8.20;;;;;;;;;;5060608;28;20835;-71
2021/06/10 01:16:56;;;;;;;8.48;7.50;;;;;;;;;;5061037;28;20189;-72
2021/06/10 01:19:34;;;;;;;9.77;8.85;;;;;;;;;;5068338;28;20169;-71
2021/06/10 01:22:01;;;;;;;9.23;8.43;;;;;;;;;;5071513;28;20172;-72
2021/06/10 01:24:29;;;;;;;8.77;7.88;;;;;;;;;;5072551;28;20197;-72
2021/06/10 01:26:57;;;;;;;10.25;8.90;;;;;;;;;;5072370;28;20173;-72
2021/06/10 01:29:22;;;;;;;9.52;8.63;;;;;;;;;;5068601;28;20173;-72
2021/06/10 01:31:48;;;;;;;11.27;8.43;;;;;;;;;;5057626;28;20650;-73
2021/06/10 01:34:13;;;;;;;9.63;8.57;;;;;;;;;;5067475;28;20201;-72
2021/06/10 01:36:40;;;;;;;9.75;8.75;;;;;;;;;;5067279;28;20181;-71
2021/06/10 01:39:06;;;;;;;9.20;8.40;;;;;;;;;;5056925;28;20245;-72
2021/06/10 01:41:32;;;;;;;11.40;8.90;;;;;;;;;;5069851;28;20169;-72
2021/06/10 01:43:59;;;;;;;8.98;8.07;;;;;;;;;;5055579;28;20251;-72
2021/06/10 01:46:25;;;;;;;8.38;7.55;;;;;;;;;;5068787;28;20196;-72
2021/06/10 01:48:50;;;;;;;8.45;7.65;;;;;;;;;;5070748;28;20184;-72
2021/06/10 01:51:16;;;;;;;9.80;8.80;;;;;;;;;;5068008;28;20176;-72
2021/06/10 01:53:43;;;;;;;13.00;11.70;;;;;;;;;;5062746;28;20201;-72
2021/06/10 01:56:09;;;;;;;11.98;10.77;;;;;;;;;;5061179;28;20178;-72
2021/06/10 01:58:35;;;;;;;12.25;11.02;;;;;;;;;;5071869;28;20176;-72
2021/06/10 02:01:01;;;;;;;14.07;12.57;;;;;;;;;;5077036;28;20199;-73
2021/06/10 02:03:27;;;;;;;14.02;12.73;;;;;;;;;;5078041;28;20734;-72
2021/06/10 02:05:53;;;;;;;14.35;12.90;;;;;;;;;;5075817;28;20184;-72
2021/06/10 02:08:19;;;;;;;15.25;13.77;;;;;;;;;;5075781;28;20174;-71
2021/06/10 02:10:46;;;;;;;13.43;12.03;;;;;;;;;;5071520;28;20173;-72
2021/06/10 02:13:12;;;;;;;13.07;11.68;;;;;;;;;;5067818;28;20237;-72
2021/06/10 02:15:38;;;;;;;10.48;9.48;;;;;;;;;;5067100;28;20273;-72
2021/06/10 02:18:03;;;;;;;11.68;10.02;;;;;;;;;;5071183;28;20605;-72
2021/06/10 02:20:28;;;;;;;10.63;9.63;;;;;;;;;;5060009;28;20361;-72
2021/06/10 02:22:53;;;;;;;11.63;10.53;;;;;;;;;;5070287;28;20213;-72
2021/06/10 02:25:19;;;;;;;11.05;10.05;;;;;;;;;;5070084;28;20514;-72
2021/06/10 02:27:44;;;;;;;13.70;12.40;;;;;;;;;;5069441;28;20161;-72
2021/06/10 02:30:10;;;;;;;13.30;11.05;;;;;;;;;;5078397;28;20187;-72
2021/06/10 02:32:35;;;;;;;12.82;11.63;;;;;;;;;;5080116;28;20249;-72
2021/06/10 02:35:05;;;;;;;14.35;12.95;;;;;;;;;;5066760;28;20635;-72
2021/06/10 02:37:31;;;;;;;14.35;12.93;;;;;;;;;;5070876;28;20184;-73
2021/06/10 02:39:56;;;;;;;12.38;11.07;;;;;;;;;;5064014;28;20659;-72
2021/06/10 02:42:22;;;;;;;13.15;11.80;;;;;;;;;;5065616;28;20198;-72
2021/06/10 02:44:49;;;;;;;14.45;12.82;;;;;;;;;;5067153;28;20305;-71
2021/06/10 02:47:15;;;;;;;13.27;11.77;;;;;;;;;;5068470;28;20180;-74
2021/06/10 02:49:45;;;;;;;13.75;12.35;;;;;;;;;;5065066;28;20170;-72
2021/06/10 02:52:12;;;;;;;13.65;12.35;;;;;;;;;;5064328;28;20261;-73
2021/06/10 02:54:37;;;;;;;14.70;13.30;;;;;;;;;;5071329;28;20193;-72
2021/06/10 02:57:04;;;;;;;15.35;13.75;;;;;;;;;;5057343;28;20185;-72
2021/06/10 02:59:30;;;;;;;16.43;14.80;;;;;;;;;;5065939;28;20177;-72
2021/06/10 03:01:56;;;;;;;13.77;12.37;;;;;;;;;;5070069;28;20187;-72
2021/06/10 03:04:21;;;;;;;15.87;14.17;;;;;;;;;;5065878;28;20201;-72
2021/06/10 03:06:46;;;;;;;15.45;13.95;;;;;;;;;;5057552;28;20181;-72
2021/06/10 03:09:13;;;;;;;16.10;14.43;;;;;;;;;;5059247;28;20667;-72
2021/06/10 03:11:39;;;;;;;14.30;12.90;;;;;;;;;;5061721;28;20609;-71
2021/06/10 03:14:05;;;;;;;14.50;13.07;;;;;;;;;;5061747;28;20286;-72
2021/06/10 03:16:30;;;;;;;15.80;14.30;;;;;;;;;;5058738;28;20187;-72
2021/06/10 03:18:56;;;;;;;15.27;13.40;;;;;;;;;;5063126;28;20178;-72
2021/06/10 03:21:23;;;;;;;17.90;15.57;;;;;;;;;;5064841;28;20201;-72
2021/06/10 03:23:49;;;;;;;16.70;15.00;;;;;;;;;;5060399;28;20251;-72
2021/06/10 03:26:15;;;;;;;18.47;16.63;;;;;;;;;;5063197;28;20602;-72
2021/06/10 03:28:40;;;;;;;17.43;15.63;;;;;;;;;;5062321;28;20696;-73
2021/06/10 03:31:05;;;;;;;16.30;14.70;;;;;;;;;;5061313;28;20203;-72
2021/06/10 03:33:31;;;;;;;17.60;15.80;;;;;;;;;;5066699;28;20204;-72
2021/06/10 03:35:56;;;;;;;18.80;16.80;;;;;;;;;;5063032;28;20539;-72
2021/06/10 03:38:22;;;;;;;17.40;15.57;;;;;;;;;;5067388;28;20172;-72
2021/06/10 03:40:48;;;;;;;17.47;15.67;;;;;;;;;;5064644;28;20189;-73
2021/06/10 03:43:14;;;;;;;18.00;16.17;;;;;;;;;;5068412;28;20636;-72
2021/06/10 03:45:39;;;;;;;16.93;15.23;;;;;;;;;;5068940;28;20541;-72
2021/06/10 03:48:05;;;;;;;17.67;15.77;;;;;;;;;;5063581;28;20169;-72
2021/06/10 03:50:31;;;;;;;17.63;15.93;;;;;;;;;;5070717;28;20181;-72
2021/06/10 03:52:57;;;;;;;16.87;15.20;;;;;;;;;;5054967;28;20628;-72
2021/06/10 03:55:22;;;;;;;20.53;18.53;;;;;;;;;;5068842;28;20229;-72
2021/06/10 03:57:47;;;;;;;20.17;18.08;;;;;;;;;;5070400;28;20195;-72
2021/06/10 04:00:13;;;;;;;18.37;16.37;;;;;;;;;;5065693;28;20291;-72
2021/06/10 04:02:38;;;;;;;21.10;18.83;;;;;;;;;;5068655;28;20300;-72
2021/06/10 04:05:04;;;;;;;21.90;19.57;;;;;;;;;;5061561;28;20173;-72
2021/06/10 04:07:29;;;;;;;20.13;17.53;;;;;;;;;;5061811;28;20692;-72
2021/06/10 04:09:54;;;;;;;19.05;17.05;;;;;;;;;;5061958;28;20172;-72
2021/06/10 04:12:19;;;;;;;20.08;17.95;;;;;;;;;;5066626;28;20446;-72
2021/06/10 04:14:45;;;;;;;23.80;21.10;;;;;;;;;;5059174;28;20220;-72
2021/06/10 04:17:10;;;;;;;21.02;18.92;;;;;;;;;;5066804;28;20606;-72
2021/06/10 04:19:35;;;;;;;20.88;18.88;;;;;;;;;;5055452;28;20718;-72
2021/06/10 04:22:00;;;;;;;18.95;17.02;;;;;;;;;;5062625;28;20251;-72
2021/06/10 04:24:25;;;;;;;19.05;17.13;;;;;;;;;;5067333;28;20194;-72
2021/06/10 04:26:51;;;;;;;17.77;15.25;;;;;;;;;;5063642;28;20170;-72
2021/06/10 04:29:16;;;;;;;16.60;14.93;;;;;;;;;;5065364;28;20165;-72
2021/06/10 04:31:41;;;;;;;15.70;14.10;;;;;;;;;;5062851;28;20433;-72
2021/06/10 04:34:06;;;;;;;16.13;14.50;;;;;;;;;;5068586;28;20193;-72
2021/06/10 04:36:32;;;;;;;15.30;13.75;;;;;;;;;;5069802;28;20177;-72
2021/06/10 04:38:57;;;;;;;14.65;13.35;;;;;;;;;;5067838;28;20690;-72
2021/06/10 04:41:22;;;;;;;15.45;14.10;;;;;;;;;;5071062;28;20192;-72
2021/06/10 04:43:47;;;;;;;14.85;13.45;;;;;;;;;;5066822;28;20224;-72
2021/06/10 04:46:12;;;;;;;14.40;13.00;;;;;;;;;;5066571;28;20184;-72
2021/06/10 04:48:38;;;;;;;14.03;12.73;;;;;;;;;;5066497;28;20206;-72
2021/06/10 04:51:03;;;;;;;14.13;12.77;;;;;;;;;;5067772;28;20530;-73
2021/06/10 04:53:29;;;;;;;14.70;13.18;;;;;;;;;;5068025;28;20653;-72
2021/06/10 04:55:54;;;;;;;13.82;12.40;;;;;;;;;;5070311;28;20184;-72
2021/06/10 04:58:19;;;;;;;11.25;10.25;;;;;;;;;;5071846;28;20570;-72
2021/06/10 05:00:44;;;;;;;12.98;11.88;;;;;;;;;;5066873;28;20279;-72
2021/06/10 05:03:10;;;;;;;11.70;10.50;;;;;;;;;;5062552;28;20296;-72
2021/06/10 05:05:35;;;;;;;12.30;11.20;;;;;;;;;;5061712;28;20931;-72
2021/06/10 05:08:01;;;;;;;13.02;11.73;;;;;;;;;;5064237;28;20169;-72
2021/06/10 05:10:26;;;;;;;12.70;11.45;;;;;;;;;;5058989;28;20177;-72
2021/06/10 05:12:51;;;;;;;11.77;10.68;;;;;;;;;;5064876;28;20201;-72
2021/06/10 05:15:17;;;;;;;12.23;11.13;;;;;;;;;;5067526;28;20173;-72
2021/06/10 05:17:42;;;;;;;11.25;10.15;;;;;;;;;;5073156;28;20185;-72
2021/06/10 05:20:08;;;;;;;10.35;9.35;;;;;;;;;;5065575;28;20188;-72
2021/06/10 05:22:33;;;;;;;9.88;9.00;;;;;;;;;;5060541;28;20202;-72
2021/06/10 05:24:58;;;;;;;10.97;9.80;;;;;;;;;;5052544;28;20264;-71
2021/06/10 05:27:23;;;;;;;11.23;10.13;;;;;;;;;;5062149;28;20445;-72
2021/06/10 05:29:48;;;;;;;11.00;9.95;;;;;;;;;;5059657;28;20428;-72
2021/06/10 05:32:13;;;;;;;10.80;9.77;;;;;;;;;;5060501;28;20180;-72
2021/06/10 05:34:39;;;;;;;11.30;10.27;;;;;;;;;;5068931;28;20271;-72
2021/06/10 05:37:04;;;;;;;10.38;9.38;;;;;;;;;;5071089;28;20199;-72
2021/06/10 05:39:29;;;;;;;11.70;10.50;;;;;;;;;;5061909;28;20195;-72
2021/06/10 05:41:55;;;;;;;10.23;9.33;;;;;;;;;;5067931;28;20185;-72
2021/06/10 05:44:20;;;;;;;12.05;9.48;;;;;;;;;;5061698;28;20573;-71
2021/06/10 05:46:48;;;;;;;10.67;9.30;;;;;;;;;;5066213;28;20181;-72
2021/06/10 05:49:13;;;;;;;10.18;9.18;;;;;;;;;;5061694;28;20426;-72
2021/06/10 05:51:38;;;;;;;11.10;10.00;;;;;;;;;;5066966;28;20614;-72
2021/06/10 05:54:03;;;;;;;13.63;10.67;;;;;;;;;;5066049;28;20541;-72
2021/06/10 05:56:29;;;;;;;13.77;10.32;;;;;;;;;;5066350;28;20951;-72
2021/06/10 05:58:54;;;;;;;9.97;9.03;;;;;;;;;;5066062;28;20199;-72
2021/06/10 06:01:19;;;;;;;10.60;8.32;;;;;;;;;;5070547;28;20425;-72
2021/06/10 06:03:44;;;;;;;9.05;8.13;;;;;;;;;;5064839;28;20228;-72
2021/06/10 06:06:10;;;;;;;8.23;7.43;;;;;;;;;;5068327;28;20207;-72
2021/06/10 06:08:35;;;;;;;8.52;7.72;;;;;;;;;;5066990;28;20231;-71
2021/06/10 06:11:00;;;;;;;12.00;7.05;;;;;;;;;;5064717;28;20613;-73
2021/06/10 06:16:10;;;;;;;8.05;5.95;;;;;;;;;;5063399;28;20286;-72
2021/06/10 06:18:36;;;;;;;5.85;5.30;;;;;;;;;;5067571;28;20211;-72
2021/06/10 06:21:01;;;;;;;6.60;6.00;;;;;;;;;;5065812;28;20212;-71
2021/06/10 06:23:28;;;;;;;6.47;5.97;;;;;;;;;;5065978;28;20265;-71
2021/06/10 06:25:54;;;;;;;7.03;5.78;;;;;;;;;;5057533;28;20169;-72
2021/06/10 06:28:19;;;;;;;5.78;5.18;;;;;;;;;;5058405;28;20248;-72
2021/06/10 06:30:44;;;;;;;6.43;5.23;;;;;;;;;;5067239;28;20638;-72
2021/06/10 06:33:09;;;;;;;6.97;4.70;;;;;;;;;;5056268;28;20441;-72
2021/06/10 06:35:34;;;;;;;5.07;4.00;;;;;;;;;;5065768;28;20931;-72
2021/06/10 06:37:59;;;;;;;5.77;4.23;;;;;;;;;;5065459;28;20498;-72
2021/06/10 06:40:26;;;;;;;4.70;4.30;;;;;;;;;;5068160;28;20854;-72
2021/06/10 06:42:51;;;;;;;7.35;4.20;;;;;;;;;;5061921;28;20606;-72
2021/06/10 06:45:17;;;;;;;6.32;4.30;;;;;;;;;;5061650;28;20916;-73
2021/06/10 06:47:42;;;;;;;4.55;3.35;;;;;;;;;;5068461;28;20173;-73
2021/06/10 06:50:07;;;;;;;5.60;3.70;;;;;;;;;;5055588;28;21504;-73
2021/06/10 06:52:32;;;;;;;3.13;2.67;;;;;;;;;;5049547;28;20422;-72
2021/06/10 06:54:57;;;;;;;3.03;2.70;;;;;;;;;;5051176;28;20195;-72
2021/06/10 06:57:23;;;;;;;5.53;2.90;;;;;;;;;;5046463;28;20205;-72
2021/06/10 06:59:48;;;;;;;4.70;3.40;;;;;;;;;;5046141;28;22029;-73
2021/06/10 07:02:13;;;;;;;3.83;3.00;;;;;;;;;;5050464;28;20437;-72
2021/06/10 07:04:38;;;;;;;3.15;2.85;;;;;;;;;;5060336;28;20676;-72
2021/06/10 07:07:03;;;;;;;3.63;3.15;;;;;;;;;;5048823;28;20272;-72
2021/06/10 07:09:29;;;;;;;3.80;3.20;;;;;;;;;;5045901;28;20185;-72
2021/06/10 07:11:54;;;;;;;3.70;2.90;;;;;;;;;;5054237;28;20761;-71
2021/06/10 07:14:19;;;;;;;3.38;2.97;;;;;;;;;;5046208;28;20458;-71
2021/06/10 07:16:44;;;;;;;3.67;2.92;;;;;;;;;;5052057;28;20230;-71
2021/06/10 07:19:10;;;;;;;5.25;2.75;;;;;;;;;;5048710;28;20178;-72
2021/06/10 07:21:42;;;;;;;5.38;2.95;;;;;;;;;;5050389;28;20193;-71
2021/06/10 07:24:08;;;;;;;3.72;3.13;;;;;;;;;;5048293;28;20292;-71
2021/06/10 07:26:33;;;;;;;4.60;3.20;;;;;;;;;;5053994;28;20180;-72
2021/06/10 07:28:58;;;;;;;5.32;4.03;;;;;;;;;;5045932;28;20194;-72
2021/06/10 07:31:23;;;;;;;6.83;4.30;;;;;;;;;;5052772;28;20192;-72
2021/06/10 07:33:48;;;;;;;5.47;3.23;;;;;;;;;;5050152;28;20235;-74
2021/06/10 07:36:13;;;;;;;5.33;3.17;;;;;;;;;;5048081;28;20433;-71
2021/06/10 07:38:39;;;;;;;5.97;3.80;;;;;;;;;;5048546;28;20435;-73
2021/06/10 07:41:04;;;;;;;5.83;3.77;;;;;;;;;;5051883;28;20935;-73
2021/06/10 07:43:29;;;;;;;4.37;3.90;;;;;;;;;;5050296;28;20228;-73
2021/06/10 07:45:54;;;;;;;4.95;3.20;;;;;;;;;;5048448;28;20181;-72
2021/06/10 07:48:19;;;;;;;6.25;4.88;;;;;;;;;;5046821;28;20177;-72
2021/06/10 07:50:45;;;;;;;4.63;4.22;;;;;;;;;;5052392;28;20190;-73
2021/06/10 07:53:10;;;;;;;5.53;3.90;;;;;;;;;;5048042;28;20201;-72
2021/06/10 07:55:35;;;;;;;5.20;4.70;;;;;;;;;;5051599;28;20189;-71
2021/06/10 07:58:01;;;;;;;5.63;4.72;;;;;;;;;;5046980;28;20276;-72
2021/06/10 08:00:26;;;;;;;5.68;4.40;;;;;;;;;;5050549;28;20200;-71
2021/06/10 08:02:57;;;;;;;5.53;4.43;;;;;;;;;;5051087;28;20687;-72
2021/06/10 08:05:22;;;;;;;6.40;4.95;;;;;;;;;;5047022;28;20189;-71
2021/06/10 08:07:48;;;;;;;8.47;4.73;;;;;;;;;;5046630;28;20180;-71
2021/06/10 08:10:13;;;;;;;6.03;3.50;;;;;;;;;;5048293;28;20189;-72
2021/06/10 08:12:38;;;;;;;4.90;4.40;;;;;;;;;;5045092;28;20259;-71
2021/06/10 08:15:04;;;;;;;6.00;4.78;;;;;;;;;;5051343;28;20246;-72
2021/06/10 08:17:30;;;;;;;7.25;5.07;;;;;;;;;;5046044;28;20180;-75
2021/06/10 08:19:55;;;;;;;6.82;5.45;;;;;;;;;;5048166;28;20190;-74
2021/06/10 08:22:21;;;;;;;6.03;4.90;;;;;;;;;;5058930;28;20181;-74
2021/06/10 08:24:46;;;;;;;7.07;5.50;;;;;;;;;;5061930;28;20606;-74
2021/06/10 08:27:11;;;;;;;5.67;5.07;;;;;;;;;;5050231;28;20429;-75
2021/06/10 08:29:36;;;;;;;10.00;8.83;;;;;;;;;;5046317;28;20612;-74
2021/06/10 08:32:01;;;;;;;7.25;6.20;;;;;;;;;;5052203;28;20483;-74
2021/06/10 08:34:27;;;;;;;6.07;5.47;;;;;;;;;;5047429;28;20208;-74
2021/06/10 08:36:52;;;;;;;6.13;5.50;;;;;;;;;;5049445;28;20180;-74
2021/06/10 08:39:17;;;;;;;6.18;5.60;;;;;;;;;;5050743;28;20540;-73
2021/06/10 08:41:43;;;;;;;7.15;5.28;;;;;;;;;;5049827;28;20212;-73
2021/06/10 08:44:09;;;;;;;7.45;5.10;;;;;;;;;;5048817;28;20216;-73
2021/06/10 08:46:35;;;;;;;5.93;5.43;;;;;;;;;;5053923;28;20203;-75
2021/06/10 08:49:01;;;;;;;6.72;5.53;;;;;;;;;;5047954;28;20187;-74
2021/06/10 08:51:26;;;;;;;9.32;5.78;;;;;;;;;;5053842;28;20182;-74
2021/06/10 08:53:52;;;;;;;7.97;6.32;;;;;;;;;;5048805;28;20239;-74
2021/06/10 08:56:18;;;;;;;7.95;6.07;;;;;;;;;;5055187;28;20191;-74
2021/06/10 08:58:43;;;;;;;6.63;6.03;;;;;;;;;;5048185;28;20185;-74
2021/06/10 09:01:13;;;;;;;6.32;5.60;;;;;;;;;;5048310;28;20186;-73
2021/06/10 09:03:39;;;;;;;6.45;5.85;;;;;;;;;;5048299;28;20300;-74
2021/06/10 09:06:05;;;;;;;10.23;6.65;;;;;;;;;;5052886;28;20251;-74
2021/06/10 09:08:30;;;;;;;6.50;5.90;;;;;;;;;;5047820;28;20259;-74
2021/06/10 09:11:04;;;;;;;6.22;5.65;;;;;;;;;;5046633;28;20211;-73
2021/06/10 09:13:36;;;;;;;5.82;5.32;;;;;;;;;;5045546;28;20209;-74
2021/06/10 09:16:20;;;;;;;6.75;5.65;;;;;;;;;;5048234;28;20824;-74
2021/06/10 09:18:51;;;;;;;8.60;5.53;;;;;;;;;;5050961;28;20184;-75
2021/06/10 09:21:26;;;;;;;5.93;5.43;;;;;;;;;;5081090;28;20197;-75
2021/06/10 09:23:52;;;;;;;7.80;6.28;;;;;;;;;;5069122;28;20212;-75
2021/06/10 09:26:17;;;;;;;4.53;4.07;;;;;;;;;;5065730;28;20539;-74
2021/06/10 09:28:43;;;;;;;5.05;4.40;;;;;;;;;;5052185;28;20186;-75
2021/06/10 09:31:09;;;;;;;5.47;4.97;;;;;;;;;;5050247;28;20185;-75
2021/06/10 09:33:38;;;;;;;5.43;4.68;;;;;;;;;;5055777;28;20739;-75
2021/06/10 09:36:04;;;;;;;7.07;4.88;;;;;;;;;;5045988;28;20231;-77
2021/06/10 09:38:29;;;;;;;6.95;3.80;;;;;;;;;;5049249;28;20185;-76
2021/06/10 09:41:01;;;;;;;4.73;3.90;;;;;;;;;;5062200;28;20216;-75
2021/06/10 09:43:40;;;;;;;3.40;3.10;;;;;;;;;;5049828;28;20518;-75
2021/06/10 09:46:05;;;;;;;6.63;3.97;;;;;;;;;;5052279;28;20196;-75
2021/06/10 09:48:31;;;;;;;4.53;3.97;;;;;;;;;;5051348;28;20272;-75
2021/06/10 09:50:56;;;;;;;5.22;3.53;;;;;;;;;;5057797;28;20181;-75
2021/06/10 09:53:23;;;;;;;5.67;3.30;;;;;;;;;;5050228;28;20220;-73
2021/06/10 09:56:00;;;;;;;4.65;3.35;;;;;;;;;;5053296;28;20421;-75
2021/06/10 09:58:30;;;;;;;4.90;4.07;;;;;;;;;;5048932;28;20193;-75
2021/06/10 10:00:57;;;;;;;4.18;3.20;;;;;;;;;;5054536;28;20186;-73
2021/06/10 10:03:22;;;;;;;5.53;4.25;;;;;;;;;;5051820;28;20278;-76
2021/06/10 10:05:47;;;;;;;5.38;3.63;;;;;;;;;;5053918;28;20177;-74
2021/06/10 10:08:14;;;;;;;8.03;3.43;;;;;;;;;;5055103;28;20181;-74
2021/06/10 10:10:40;;;;;;;3.90;2.47;;;;;;;;;;5057084;28;20436;-75
2021/06/10 10:13:09;;;;;;;2.75;2.10;;;;;;;;;;5066644;28;20287;-76
2021/06/10 10:15:34;;;;;;;2.60;2.40;;;;;;;;;;5063243;28;20196;-75
2021/06/10 10:17:59;;;;;;;2.60;2.40;;;;;;;;;;5066369;28;20185;-75
2021/06/10 10:20:24;;;;;;;3.95;2.58;;;;;;;;;;5069908;28;20457;-77
2021/06/10 10:22:50;;;;;;;3.20;2.35;;;;;;;;;;5069080;28;20204;-75
2021/06/10 10:25:15;;;;;;;3.00;1.83;;;;;;;;;;5066743;28;20666;-74
2021/06/10 10:27:40;;;;;;;3.65;1.60;;;;;;;;;;5072968;28;20458;-74
2021/06/10 10:30:08;;;;;;;1.73;1.42;;;;;;;;;;5069536;28;20177;-74
2021/06/10 10:32:35;;;;;;;4.63;1.60;;;;;;;;;;5050866;28;20591;-74
2021/06/10 10:35:20;;;;;;;2.78;1.38;;;;;;;;;;5050154;28;20240;-74
2021/06/10 10:37:45;;;;;;;3.55;1.50;;;;;;;;;;5052430;28;20212;-74
2021/06/10 10:40:18;;;;;;;2.53;1.50;;;;;;;;;;5063674;28;20266;-74
2021/06/10 10:42:44;;;;;;;2.63;1.63;;;;;;;;;;5058086;28;20195;-74
2021/06/10 10:45:10;;;;;;;1.97;1.30;;;;;;;;;;5059419;28;20180;-74
2021/06/10 10:47:45;;;;;;;2.78;1.13;;;;;;;;;;5065278;28;20557;-74
2021/06/10 10:50:17;;;;;;;2.90;1.10;;;;;;;;;;5067568;28;20234;-74
2021/06/10 10:52:52;;;;;;;1.38;1.27;;;;;;;;;;5071002;28;20189;-73
2021/06/10 10:55:27;;;;;;;2.97;1.10;;;;;;;;;;5064909;28;20195;-75
2021/06/10 10:58:06;;;;;;;3.03;1.17;;;;;;;;;;5066915;28;20711;-74
2021/06/10 11:00:48;;;;;;;2.63;1.48;;;;;;;;;;5056672;28;20188;-74
2021/06/10 11:03:17;;;;;;;2.65;1.38;;;;;;;;;;5071114;28;20700;-74
2021/06/10 11:05:43;;;;;;;2.30;1.65;;;;;;;;;;5068823;28;20177;-74
2021/06/10 11:08:09;;;;;;;1.95;1.85;;;;;;;;;;5068311;28;20708;-74
2021/06/10 11:10:49;;;;;;;3.67;2.30;;;;;;;;;;5066245;28;20177;-74
2021/06/10 11:13:15;;;;;;;3.22;1.50;;;;;;;;;;5068342;28;20204;-74
2021/06/10 11:15:43;;;;;;;2.45;1.20;;;;;;;;;;5064276;28;20548;-74
2021/06/10 11:18:08;;;;;;;5.05;1.25;;;;;;;;;;5048926;28;20734;-75
2021/06/10 11:20:36;;;;;;;3.30;1.80;;;;;;;;;;5053732;28;20181;-74
2021/06/10 11:23:18;;;;;;;3.08;1.75;;;;;;;;;;5049820;28;20205;-74
2021/06/10 11:25:52;;;;;;;2.30;2.10;;;;;;;;;;5052128;28;20177;-74
2021/06/10 11:28:18;;;;;;;3.45;2.38;;;;;;;;;;5055381;28;20657;-73
2021/06/10 11:30:44;;;;;;;5.00;3.15;;;;;;;;;;5050273;28;20196;-73
2021/06/10 11:33:15;;;;;;;3.88;3.08;;;;;;;;;;5054976;28;20291;-74
2021/06/10 11:35:50;;;;;;;3.92;2.88;;;;;;;;;;5048330;28;20211;-74
2021/06/10 11:38:19;;;;;;;4.90;3.17;;;;;;;;;;5069789;28;20176;-74
2021/06/10 11:40:46;;;;;;;4.03;2.97;;;;;;;;;;5049007;28;20188;-74
2021/06/10 11:43:12;;;;;;;5.43;3.20;;;;;;;;;;5046246;28;20227;-73
2021/06/10 11:45:38;;;;;;;3.80;2.85;;;;;;;;;;5051552;28;20211;-74
2021/06/10 11:48:03;;;;;;;3.33;2.53;;;;;;;;;;5061236;28;20208;-73
2021/06/10 11:50:28;;;;;;;3.33;2.90;;;;;;;;;;5052557;28;20184;-74
2021/06/10 11:52:55;;;;;;;3.90;2.77;;;;;;;;;;5048149;28;20205;-74
2021/06/10 11:55:21;;;;;;;5.35;2.70;;;;;;;;;;5046058;28;20560;-74
2021/06/10 11:57:53;;;;;;;3.15;2.85;;;;;;;;;;5051060;28;20184;-74
2021/06/10 12:00:24;;;;;;;5.13;3.20;;;;;;;;;;5054027;28;20893;-74
2021/06/10 12:02:53;;;;;;;3.33;3.00;;;;;;;;;;5049318;28;20299;-75
2021/06/10 12:05:20;;;;;;;3.33;3.03;;;;;;;;;;5052598;28;20199;-74
2021/06/10 12:07:45;;;;;;;10.18;2.92;;;;;;;;;;5049006;28;20192;-74
2021/06/10 12:10:28;;;;;;;3.15;2.50;;;;;;;;;;5048583;28;20191;-74
2021/06/10 12:12:53;;;;;;;4.05;2.10;;;;;;;;;;5047913;28;20212;-73
2021/06/10 12:15:26;;;;;;;3.37;2.90;;;;;;;;;;5049700;28;20189;-74
2021/06/10 12:17:55;;;;;;;2.83;2.58;;;;;;;;;;5048923;28;22036;-74
2021/06/10 12:20:24;;;;;;;2.85;2.65;;;;;;;;;;5052333;28;20204;-74
2021/06/10 12:22:49;;;;;;;4.53;2.22;;;;;;;;;;5046282;28;20215;-74
2021/06/10 12:25:19;;;;;;;4.07;3.05;;;;;;;;;;5045634;28;20172;-74
2021/06/10 12:27:45;;;;;;;5.25;2.45;;;;;;;;;;5046459;28;20176;-73
2021/06/10 12:30:39;;;;;;;2.60;2.15;;;;;;;;;;5047766;28;20214;-74
2021/06/10 12:33:14;;;;;;;3.55;2.70;;;;;;;;;;5053952;28;20216;-74
2021/06/10 12:35:39;;;;;;;3.85;2.30;;;;;;;;;;5046291;28;20295;-75
2021/06/10 12:38:05;;;;;;;3.65;2.40;;;;;;;;;;5047755;28;20654;-75
2021/06/10 12:40:37;;;;;;;6.20;3.58;;;;;;;;;;5055558;28;20197;-75
2021/06/10 12:43:13;;;;;;;6.47;3.88;;;;;;;;;;5048682;28;20404;-75
2021/06/10 12:45:39;;;;;;;5.15;3.83;;;;;;;;;;5055722;28;20586;-75
2021/06/10 12:48:23;;;;;;;4.47;3.28;;;;;;;;;;5052942;28;20279;-75
2021/06/10 12:50:48;;;;;;;6.18;4.30;;;;;;;;;;5051024;28;20255;-75
2021/06/10 12:53:16;;;;;;;4.90;4.43;;;;;;;;;;5048892;28;20193;-76
2021/06/10 12:55:42;;;;;;;5.70;3.72;;;;;;;;;;5054741;28;20616;-75
2021/06/10 12:58:08;;;;;;;6.13;4.40;;;;;;;;;;5050848;28;20602;-76
2021/06/10 13:00:34;;;;;;;4.93;3.80;;;;;;;;;;5051139;28;20272;-76
2021/06/10 13:03:01;;;;;;;5.47;4.97;;;;;;;;;;5054216;28;20295;-76
2021/06/10 13:05:26;;;;;;;6.82;5.20;;;;;;;;;;5056696;28;20186;-75
2021/06/10 13:07:54;;;;;;;5.85;5.35;;;;;;;;;;5055653;28;20670;-76
2021/06/10 13:10:38;;;;;;;5.50;5.00;;;;;;;;;;5055418;28;20191;-76
2021/06/10 13:13:04;;;;;;;6.72;5.25;;;;;;;;;;5057376;28;20296;-75
2021/06/10 13:15:36;;;;;;;4.70;4.30;;;;;;;;;;5055904;28;20935;-75
2021/06/10 13:18:06;;;;;;;6.20;5.07;;;;;;;;;;5052033;28;20246;-75
2021/06/10 13:20:50;;;;;;;6.05;5.03;;;;;;;;;;5056269;28;20177;-76
2021/06/10 13:23:17;;;;;;;11.93;6.20;;;;;;;;;;5052716;28;20281;-76
2021/06/10 13:25:43;;;;;;;5.78;5.18;;;;;;;;;;5054257;28;20658;-75
2021/06/10 13:28:09;;;;;;;5.78;5.28;;;;;;;;;;5052108;28;20690;-74
2021/06/10 13:30:35;;;;;;;8.60;5.82;;;;;;;;;;5054192;28;20191;-76
2021/06/10 13:33:00;;;;;;;6.40;5.05;;;;;;;;;;5051836;28;20201;-75
2021/06/10 13:35:25;;;;;;;8.53;5.70;;;;;;;;;;5052451;28;20187;-74
2021/06/10 13:37:51;;;;;;;6.50;5.35;;;;;;;;;;5052081;28;20188;-74
2021/06/10 13:40:16;;;;;;;6.67;6.07;;;;;;;;;;5054706;28;20203;-75
2021/06/10 13:42:49;;;;;;;8.83;6.10;;;;;;;;;;5050361;28;20765;-75
2021/06/10 13:45:14;;;;;;;5.90;5.18;;;;;;;;;;5048224;28;20578;-75
2021/06/10 13:47:39;;;;;;;6.70;6.05;;;;;;;;;;5057261;28;20241;-75
2021/06/10 13:50:05;;;;;;;8.57;6.70;;;;;;;;;;5050080;28;20271;-75
2021/06/10 13:52:30;;;;;;;6.88;6.18;;;;;;;;;;5051203;28;20181;-76
2021/06/10 13:54:55;;;;;;;8.35;5.95;;;;;;;;;;5054295;28;20230;-75
2021/06/10 13:57:20;;;;;;;5.83;5.20;;;;;;;;;;5050856;28;20177;-75
2021/06/10 13:59:45;;;;;;;7.40;5.30;;;;;;;;;;5052896;28;20460;-75
2021/06/10 14:02:11;;;;;;;7.37;6.57;;;;;;;;;;5055253;28;20189;-76
2021/06/10 14:04:36;;;;;;;9.40;8.25;;;;;;;;;;5049262;28;20208;-75
2021/06/10 14:07:02;;;;;;;8.90;6.73;;;;;;;;;;5055410;28;20176;-76
2021/06/10 14:09:27;;;;;;;7.25;6.35;;;;;;;;;;5053265;28;20425;-75
2021/06/10 14:11:53;;;;;;;8.02;6.13;;;;;;;;;;5050165;28;20183;-75
2021/06/10 14:14:18;;;;;;;8.10;5.33;;;;;;;;;;5048828;28;20204;-75
2021/06/10 14:16:43;;;;;;;5.93;5.23;;;;;;;;;;5050352;28;20555;-75
2021/06/10 14:19:13;;;;;;;4.88;4.28;;;;;;;;;;5049199;28;20631;-74
2021/06/10 14:21:38;;;;;;;7.75;4.88;;;;;;;;;;5052385;28;20281;-74
2021/06/10 14:24:05;;;;;;;5.68;5.10;;;;;;;;;;5051138;28;20701;-74
2021/06/10 14:26:30;;;;;;;4.80;4.28;;;;;;;;;;5055335;28;20189;-76
2021/06/10 14:29:07;;;;;;;5.33;3.90;;;;;;;;;;5049844;28;20184;-75
2021/06/10 14:34:16;;;;;;;5.63;4.72;;;;;;;;;;5049048;28;20205;-75
2021/06/10 14:36:41;;;;;;;6.45;5.40;;;;;;;;;;5059001;28;20328;-75
2021/06/10 14:39:06;;;;;;;6.97;5.13;;;;;;;;;;5053960;28;20196;-74
2021/06/10 14:41:32;;;;;;;3.88;3.45;;;;;;;;;;5054862;28;20185;-75